createdAt,value
2022-11-30T00:01:11.035Z,10.43
2022-11-30T00:03:37.977Z,10.31
2022-11-30T00:06:05.428Z,10.31
2022-11-30T00:08:31.929Z,10.32
2022-11-30T00:10:58.478Z,10.35
2022-11-30T00:13:24.984Z,10.31
2022-11-30T00:15:51.444Z,10.36
2022-11-30T00:18:19.450Z,10.32
2022-11-30T00:20:45.927Z,10.29
2022-11-30T00:23:12.429Z,10.34
2022-11-30T00:25:38.936Z,10.38
2022-11-30T00:28:05.419Z,10.33
2022-11-30T00:30:31.995Z,10.27
2022-11-30T00:32:58.515Z,10.42
2022-11-30T00:35:26.422Z,10.50
2022-11-30T00:37:52.914Z,10.46
2022-11-30T00:40:19.486Z,10.28
2022-11-30T00:42:45.987Z,10.49
2022-11-30T00:45:12.490Z,10.43
2022-11-30T00:47:39.022Z,10.43
2022-11-30T00:50:06.777Z,10.35
2022-11-30T00:52:34.736Z,10.42
2022-11-30T00:55:04.040Z,10.47
2022-11-30T00:57:33.853Z,10.40
2022-11-30T01:00:00.337Z,10.46
2022-11-30T01:02:26.922Z,10.48
2022-11-30T01:04:53.583Z,10.43
2022-11-30T01:07:20.097Z,10.37
2022-11-30T01:09:48.411Z,10.45
2022-11-30T01:12:14.847Z,10.47
2022-11-30T01:14:41.358Z,10.46
2022-11-30T01:17:07.988Z,10.37
2022-11-30T01:19:34.432Z,10.38
2022-11-30T01:22:00.993Z,10.49
2022-11-30T01:24:27.504Z,10.48
2022-11-30T01:26:55.309Z,10.46
2022-11-30T01:29:21.972Z,10.50
2022-11-30T01:31:48.518Z,10.49
2022-11-30T01:34:15.080Z,10.45
2022-11-30T01:36:41.537Z,10.47
2022-11-30T01:39:08.788Z,10.46
2022-11-30T01:41:36.514Z,10.42
2022-11-30T01:44:51.537Z,10.48
2022-11-30T01:47:20.606Z,10.46
2022-11-30T01:49:51.220Z,10.55
2022-11-30T01:52:20.519Z,10.57
2022-11-30T01:54:51.563Z,10.59
2022-11-30T01:57:25.179Z,10.55
2022-11-30T01:59:57.325Z,10.53
2022-11-30T02:02:32.077Z,10.53
2022-11-30T02:04:59.349Z,10.54
2022-11-30T02:07:26.899Z,10.60
2022-11-30T02:09:53.870Z,10.60
2022-11-30T02:12:33.018Z,10.47
2022-11-30T02:15:08.650Z,10.53
2022-11-30T02:17:48.761Z,10.51
2022-11-30T02:20:42.613Z,10.47
2022-11-30T02:23:37.905Z,10.46
2022-11-30T02:26:22.700Z,10.46
2022-11-30T02:29:07.039Z,10.48
2022-11-30T02:31:40.924Z,10.47
2022-11-30T02:34:10.116Z,10.33
2022-11-30T02:36:37.195Z,10.32
2022-11-30T02:39:04.228Z,10.35
2022-11-30T02:41:38.107Z,10.29
2022-11-30T02:44:08.857Z,10.39
2022-11-30T02:46:47.537Z,10.38
2022-11-30T02:49:18.843Z,10.17
2022-11-30T02:51:46.945Z,10.22
2022-11-30T02:54:13.556Z,10.27
2022-11-30T02:56:40.144Z,10.18
2022-11-30T02:59:08.090Z,10.25
2022-11-30T03:01:34.630Z,10.15
2022-11-30T03:04:01.185Z,10.18
2022-11-30T03:06:27.710Z,10.19
2022-11-30T03:08:54.193Z,10.23
2022-11-30T03:11:20.869Z,10.19
2022-11-30T03:13:47.572Z,10.10
2022-11-30T03:16:15.410Z,10.13
2022-11-30T03:18:42.327Z,10.10
2022-11-30T03:21:10.730Z,10.23
2022-11-30T03:23:37.953Z,10.20
2022-11-30T03:26:05.954Z,9.90
2022-11-30T03:28:32.782Z,9.77
2022-11-30T03:30:59.333Z,9.68
2022-11-30T03:33:27.282Z,9.67
2022-11-30T03:35:59.936Z,9.88
2022-11-30T03:38:26.488Z,9.32
2022-11-30T03:40:59.715Z,9.22
2022-11-30T03:43:26.247Z,9.22
2022-11-30T03:45:52.788Z,9.00
2022-11-30T03:48:19.525Z,8.93
2022-11-30T03:50:47.403Z,8.55
2022-11-30T03:53:13.899Z,8.48
2022-11-30T03:55:40.405Z,8.45
2022-11-30T03:58:07.055Z,8.53
2022-11-30T04:00:33.611Z,8.38
2022-11-30T04:03:00.241Z,8.41
2022-11-30T04:05:26.784Z,8.44
2022-11-30T04:07:54.916Z,8.48
2022-11-30T04:10:21.553Z,8.32
2022-11-30T04:12:47.999Z,8.33
2022-11-30T04:15:14.654Z,8.36
2022-11-30T04:17:41.144Z,8.62
2022-11-30T04:20:08.305Z,8.43
2022-11-30T04:22:35.128Z,8.30
2022-11-30T04:25:03.254Z,8.56
2022-11-30T04:27:32.156Z,8.35
2022-11-30T04:29:58.748Z,8.19
2022-11-30T04:32:28.043Z,8.52
2022-11-30T04:34:54.663Z,8.11
2022-11-30T04:37:21.188Z,8.04
2022-11-30T04:39:47.751Z,8.04
2022-11-30T04:42:15.604Z,7.93
2022-11-30T04:44:45.083Z,7.82
2022-11-30T04:47:14.491Z,7.89
2022-11-30T04:49:41.023Z,8.15
2022-11-30T04:52:07.741Z,7.84
2022-11-30T04:54:34.315Z,7.83
2022-11-30T04:57:00.890Z,7.84
2022-11-30T04:59:28.742Z,7.65
2022-11-30T05:01:55.602Z,7.70
2022-11-30T05:04:22.151Z,7.87
2022-11-30T05:06:48.800Z,7.89
2022-11-30T05:09:15.325Z,7.97
2022-11-30T05:11:41.802Z,7.90
2022-11-30T05:14:08.272Z,7.92
2022-11-30T05:16:36.352Z,7.94
2022-11-30T05:19:02.946Z,8.01
2022-11-30T05:21:29.946Z,7.90
2022-11-30T05:23:56.489Z,7.76
2022-11-30T05:26:23.067Z,7.84
2022-11-30T05:28:49.663Z,8.02
2022-11-30T05:31:16.260Z,8.04
2022-11-30T05:33:44.236Z,8.04
2022-11-30T05:36:11.156Z,8.20
2022-11-30T05:38:37.861Z,8.11
2022-11-30T05:41:04.709Z,8.20
2022-11-30T05:43:31.225Z,8.35
2022-11-30T05:46:00.030Z,8.26
2022-11-30T05:48:26.557Z,8.20
2022-11-30T05:50:54.606Z,8.30
2022-11-30T05:53:21.178Z,8.23
2022-11-30T05:55:47.720Z,8.12
2022-11-30T05:58:14.229Z,8.01
2022-11-30T06:00:40.716Z,7.86
2022-11-30T06:03:07.370Z,7.87
2022-11-30T06:05:35.112Z,7.84
2022-11-30T06:08:03.048Z,7.86
2022-11-30T06:10:31.947Z,7.86
2022-11-30T06:13:06.071Z,7.91
2022-11-30T06:15:32.580Z,8.07
2022-11-30T06:18:01.612Z,8.03
2022-11-30T06:20:31.000Z,8.20
2022-11-30T06:22:57.488Z,8.14
2022-11-30T06:25:35.213Z,8.24
2022-11-30T06:28:01.755Z,8.23
2022-11-30T06:30:28.312Z,8.25
2022-11-30T06:32:54.841Z,8.28
2022-11-30T06:35:21.786Z,8.47
2022-11-30T06:37:48.294Z,8.30
2022-11-30T06:40:15.165Z,8.46
2022-11-30T06:42:43.305Z,8.61
2022-11-30T06:45:10.644Z,8.60
2022-11-30T06:47:37.193Z,8.51
2022-11-30T06:50:04.688Z,8.47
2022-11-30T06:52:31.665Z,8.45
2022-11-30T06:54:58.212Z,8.54
2022-11-30T06:57:27.522Z,8.50
2022-11-30T06:59:55.632Z,8.29
2022-11-30T07:02:22.559Z,8.55
2022-11-30T07:04:49.535Z,8.55
2022-11-30T07:07:16.774Z,8.49
2022-11-30T07:09:43.541Z,8.15
2022-11-30T07:12:10.063Z,8.36
2022-11-30T07:14:36.696Z,8.49
2022-11-30T07:17:04.779Z,8.39
2022-11-30T07:19:31.621Z,8.10
2022-11-30T07:22:10.926Z,8.04
2022-11-30T07:24:37.377Z,8.25
2022-11-30T07:27:04.234Z,8.08
2022-11-30T07:29:32.483Z,8.06
2022-11-30T07:31:58.987Z,8.10
2022-11-30T07:34:27.142Z,8.09
2022-11-30T07:36:53.738Z,8.26
2022-11-30T07:39:20.371Z,8.24
2022-11-30T07:41:46.937Z,8.15
2022-11-30T07:44:13.484Z,8.16
2022-11-30T07:46:39.982Z,8.33
2022-11-30T07:49:08.831Z,8.28
2022-11-30T07:51:37.654Z,8.31
2022-11-30T07:54:04.746Z,8.31
2022-11-30T07:56:31.356Z,8.41
2022-11-30T07:58:59.811Z,8.42
2022-11-30T08:01:28.837Z,8.59
2022-11-30T08:03:55.906Z,8.62
2022-11-30T08:06:25.475Z,8.91
2022-11-30T08:08:56.296Z,8.87
2022-11-30T08:11:25.403Z,8.81
2022-11-30T08:13:51.956Z,8.95
2022-11-30T08:16:20.398Z,8.58
2022-11-30T08:18:47.208Z,8.72
2022-11-30T08:21:16.684Z,8.84
2022-11-30T08:23:45.249Z,9.02
2022-11-30T08:26:15.743Z,9.11
2022-11-30T08:28:43.704Z,9.10
2022-11-30T08:31:12.069Z,9.19
2022-11-30T08:33:38.900Z,9.31
2022-11-30T08:36:06.570Z,9.22
2022-11-30T08:38:33.084Z,9.32
2022-11-30T08:40:59.602Z,9.25
2022-11-30T08:43:27.468Z,9.44
2022-11-30T08:45:54.403Z,9.15
2022-11-30T08:48:23.785Z,9.15
2022-11-30T08:50:50.296Z,9.34
2022-11-30T08:53:17.210Z,9.36
2022-11-30T08:55:43.662Z,9.34
2022-11-30T08:58:10.342Z,9.30
2022-11-30T09:00:38.198Z,9.45
2022-11-30T09:03:04.806Z,9.43
2022-11-30T09:05:31.292Z,9.23
2022-11-30T09:07:57.868Z,9.34
2022-11-30T09:10:24.616Z,8.95
2022-11-30T09:12:51.080Z,9.06
2022-11-30T09:15:17.684Z,8.75
2022-11-30T09:17:45.915Z,8.97
2022-11-30T09:20:12.853Z,9.14
2022-11-30T09:22:39.419Z,9.07
2022-11-30T09:25:06.802Z,9.32
2022-11-30T09:27:34.108Z,9.22
2022-11-30T09:30:00.586Z,9.03
2022-11-30T09:32:28.007Z,9.31
2022-11-30T09:34:55.950Z,9.42
2022-11-30T09:37:22.479Z,9.47
2022-11-30T09:39:49.173Z,9.41
2022-11-30T09:42:28.107Z,9.36
2022-11-30T09:45:01.692Z,9.26
2022-11-30T09:48:22.060Z,8.97
2022-11-30T09:50:51.076Z,8.91
2022-11-30T09:53:28.936Z,8.80
2022-11-30T09:55:56.603Z,8.65
2022-11-30T09:58:33.382Z,8.51
2022-11-30T10:01:03.768Z,8.86
2022-11-30T10:03:33.405Z,8.82
2022-11-30T10:06:08.657Z,8.87
2022-11-30T10:09:23.092Z,9.11
2022-11-30T10:12:05.104Z,9.28
2022-11-30T10:14:49.877Z,9.58
2022-11-30T10:17:35.397Z,9.27
2022-11-30T10:20:17.016Z,9.21
2022-11-30T10:23:05.810Z,9.51
2022-11-30T10:25:40.789Z,9.45
2022-11-30T10:28:45.161Z,9.13
2022-11-30T10:31:03.308Z,8.92
2022-11-30T10:33:38.721Z,8.72
2022-11-30T10:36:12.093Z,8.82
2022-11-30T10:38:44.704Z,8.63
2022-11-30T10:41:16.618Z,8.73
2022-11-30T10:43:48.653Z,8.56
2022-11-30T10:46:21.502Z,8.78
2022-11-30T10:48:54.656Z,8.59
2022-11-30T10:51:22.564Z,8.83
2022-11-30T10:53:50.509Z,8.95
2022-11-30T10:56:17.051Z,8.78
2022-11-30T10:58:51.597Z,8.53
2022-11-30T11:01:33.301Z,8.35
2022-11-30T11:04:14.391Z,8.50
2022-11-30T11:06:44.790Z,8.59
2022-11-30T11:09:36.303Z,8.97
2022-11-30T11:12:05.062Z,8.83
2022-11-30T11:14:37.715Z,8.66
2022-11-30T11:17:06.958Z,9.01
2022-11-30T11:19:38.998Z,9.05
2022-11-30T11:22:14.352Z,9.10
2022-11-30T11:24:42.526Z,9.19
2022-11-30T11:27:25.436Z,9.16
2022-11-30T11:30:05.432Z,9.05
2022-11-30T11:32:32.177Z,9.42
2022-11-30T11:34:58.910Z,9.49
2022-11-30T11:37:27.184Z,9.48
2022-11-30T11:40:01.709Z,9.02
2022-11-30T11:42:31.548Z,9.21
2022-11-30T11:45:00.512Z,9.22
2022-11-30T11:47:38.474Z,9.36
2022-11-30T11:50:27.185Z,9.22
2022-11-30T11:53:22.944Z,9.61
2022-11-30T11:55:59.819Z,9.38
2022-11-30T11:58:38.058Z,9.52
2022-11-30T12:01:37.997Z,9.77
2022-11-30T12:04:04.974Z,9.82
2022-11-30T12:06:33.368Z,9.66
2022-11-30T12:09:07.033Z,9.39
2022-11-30T12:11:41.555Z,9.23
2022-11-30T12:14:12.216Z,9.19
2022-11-30T12:16:53.291Z,9.70
2022-11-30T12:19:24.497Z,9.89
2022-11-30T12:21:59.063Z,10.06
2022-11-30T12:24:53.842Z,9.89
2022-11-30T12:27:34.388Z,9.50
2022-11-30T12:30:12.480Z,9.66
2022-11-30T12:33:06.910Z,9.88
2022-11-30T12:35:39.466Z,9.69
2022-11-30T12:38:15.878Z,9.51
2022-11-30T12:40:53.049Z,9.44
2022-11-30T12:43:31.507Z,9.46
2022-11-30T12:46:07.388Z,9.68
2022-11-30T12:48:44.470Z,9.62
2022-11-30T12:51:22.830Z,9.49
2022-11-30T12:53:59.362Z,9.32
2022-11-30T12:56:35.963Z,9.09
2022-11-30T12:59:15.332Z,9.12
2022-11-30T13:01:57.491Z,8.96
2022-11-30T13:04:28.092Z,9.07
2022-11-30T13:07:00.204Z,9.02
2022-11-30T13:09:33.193Z,8.77
2022-11-30T13:12:05.725Z,8.83
2022-11-30T13:14:34.677Z,8.92
2022-11-30T13:17:02.873Z,9.00
2022-11-30T13:19:52.649Z,9.15
2022-11-30T13:22:25.377Z,8.95
2022-11-30T13:25:00.715Z,9.15
2022-11-30T13:27:37.103Z,8.53
2022-11-30T13:30:19.106Z,8.62
2022-11-30T13:33:01.061Z,8.50
2022-11-30T13:35:40.790Z,8.76
2022-11-30T13:41:08.595Z,8.31
2022-11-30T13:43:44.663Z,8.34
2022-11-30T13:46:19.845Z,8.36
2022-11-30T13:48:47.712Z,8.32
2022-11-30T13:51:34.481Z,8.52
2022-11-30T13:54:34.378Z,8.76
2022-11-30T13:57:00.983Z,8.84
2022-11-30T13:59:35.597Z,8.66
2022-11-30T14:02:39.768Z,8.48
2022-11-30T14:05:23.657Z,8.53
2022-11-30T14:08:26.775Z,8.42
2022-11-30T14:10:55.145Z,8.53
2022-11-30T14:13:31.652Z,8.50
2022-11-30T14:16:00.201Z,8.48
2022-11-30T14:18:41.961Z,8.69
2022-11-30T14:21:23.524Z,8.95
2022-11-30T14:23:59.412Z,8.60
2022-11-30T14:26:30.613Z,8.56
2022-11-30T14:29:02.843Z,8.41
2022-11-30T14:31:34.252Z,8.61
2022-11-30T14:34:06.434Z,8.33
2022-11-30T14:36:38.028Z,8.46
2022-11-30T14:39:04.727Z,8.20
2022-11-30T14:41:33.630Z,8.18
2022-11-30T14:44:02.085Z,8.11
2022-11-30T14:46:29.870Z,8.31
2022-11-30T14:49:14.433Z,8.29
2022-11-30T14:51:46.071Z,8.08
2022-11-30T14:54:26.460Z,8.13
2022-11-30T14:57:00.234Z,8.03
2022-11-30T14:59:41.737Z,7.87
2022-11-30T15:02:19.450Z,8.32
2022-11-30T15:04:47.881Z,8.47
2022-11-30T15:07:16.705Z,8.14
2022-11-30T15:09:46.305Z,8.41
2022-11-30T15:12:17.883Z,8.23
2022-11-30T15:15:17.196Z,8.18
2022-11-30T15:17:56.841Z,8.26
2022-11-30T15:20:27.517Z,8.12
2022-11-30T15:22:57.471Z,8.13
2022-11-30T15:25:30.767Z,8.03
2022-11-30T15:27:58.830Z,8.15
2022-11-30T15:30:25.537Z,8.11
2022-11-30T15:32:52.499Z,8.23
2022-11-30T15:35:24.275Z,8.29
2022-11-30T15:37:51.463Z,8.31
2022-11-30T15:40:29.538Z,8.30
2022-11-30T15:42:56.298Z,8.43
2022-11-30T15:45:25.068Z,8.74
2022-11-30T15:47:53.223Z,8.69
2022-11-30T15:50:39.256Z,8.75
2022-11-30T15:53:24.602Z,8.42
2022-11-30T15:55:54.664Z,8.52
2022-11-30T15:58:27.395Z,8.39
2022-11-30T16:01:02.740Z,8.35
2022-11-30T16:03:29.619Z,8.26
2022-11-30T16:05:58.101Z,8.35
2022-11-30T16:08:24.755Z,8.05
2022-11-30T16:10:53.888Z,8.19
2022-11-30T16:13:21.674Z,8.28
2022-11-30T16:15:50.102Z,8.35
2022-11-30T16:18:19.210Z,8.37
2022-11-30T16:20:50.077Z,8.21
2022-11-30T16:23:17.695Z,8.11
2022-11-30T16:25:45.952Z,8.35
2022-11-30T16:28:15.607Z,8.64
2022-11-30T16:30:43.327Z,8.72
2022-11-30T16:33:12.874Z,8.59
2022-11-30T16:35:42.496Z,8.60
2022-11-30T16:38:09.016Z,8.61
2022-11-30T16:40:39.154Z,8.57
2022-11-30T16:43:06.178Z,8.61
2022-11-30T16:45:36.663Z,8.55
2022-11-30T16:48:03.739Z,8.49
2022-11-30T16:50:30.239Z,8.41
2022-11-30T16:52:56.811Z,8.37
2022-11-30T16:55:25.307Z,8.61
2022-11-30T16:57:51.875Z,8.38
2022-11-30T17:00:19.314Z,8.43
2022-11-30T17:02:54.749Z,8.30
2022-11-30T17:05:21.293Z,7.92
2022-11-30T17:07:47.968Z,8.02
2022-11-30T17:10:16.155Z,8.01
2022-11-30T17:12:43.829Z,7.96
2022-11-30T17:15:15.567Z,8.29
2022-11-30T17:17:42.203Z,8.23
2022-11-30T17:20:11.003Z,8.08
2022-11-30T17:22:37.503Z,8.10
2022-11-30T17:25:05.597Z,8.48
2022-11-30T17:27:32.151Z,8.41
2022-11-30T17:29:58.709Z,8.49
2022-11-30T17:32:25.418Z,8.63
2022-11-30T17:34:51.969Z,8.12
2022-11-30T17:37:22.299Z,7.89
2022-11-30T17:39:49.049Z,7.79
2022-11-30T17:42:15.617Z,7.83
2022-11-30T17:44:42.620Z,7.82
2022-11-30T17:47:09.236Z,7.67
2022-11-30T17:49:35.722Z,7.79
2022-11-30T17:52:02.456Z,7.86
2022-11-30T17:54:30.481Z,8.00
2022-11-30T17:56:57.017Z,8.14
2022-11-30T17:59:23.522Z,8.38
2022-11-30T18:01:50.106Z,8.10
2022-11-30T18:04:16.676Z,7.93
2022-11-30T18:06:43.518Z,8.33
2022-11-30T18:09:10.089Z,8.12
2022-11-30T18:11:38.204Z,8.00
2022-11-30T18:14:04.759Z,8.06
2022-11-30T18:16:32.998Z,7.92
2022-11-30T18:19:00.084Z,7.70
2022-11-30T18:21:29.130Z,7.90
2022-11-30T18:23:58.575Z,7.90
2022-11-30T18:26:28.150Z,7.90
2022-11-30T18:28:58.506Z,8.01
2022-11-30T18:31:25.503Z,7.96
2022-11-30T18:33:53.901Z,8.25
2022-11-30T18:36:20.417Z,8.39
2022-11-30T18:38:46.910Z,8.25
2022-11-30T18:41:13.557Z,8.10
2022-11-30T18:43:40.115Z,8.08
2022-11-30T18:46:10.002Z,8.24
2022-11-30T18:48:37.293Z,7.79
2022-11-30T18:51:10.150Z,7.96
2022-11-30T18:53:36.750Z,7.76
2022-11-30T18:59:55.743Z,7.59
2022-11-30T19:02:25.332Z,7.57
2022-11-30T19:06:09.715Z,7.73
2022-11-30T19:23:02.279Z,8.02
2022-11-30T20:25:52.685Z,7.58
2022-11-30T21:00:11.520Z,7.17
2022-11-30T21:12:05.185Z,7.21
2022-11-30T21:14:33.169Z,7.14
2022-11-30T21:16:59.688Z,7.16
2022-11-30T21:19:26.426Z,7.27
2022-11-30T21:21:52.955Z,7.12
2022-11-30T21:24:19.467Z,7.23
2022-11-30T21:26:45.978Z,7.09
2022-11-30T21:29:14.321Z,7.27
2022-11-30T21:31:42.817Z,7.36
2022-11-30T21:34:09.647Z,7.41
2022-11-30T21:36:36.254Z,7.09
2022-11-30T21:39:06.434Z,6.96
2022-11-30T21:41:34.177Z,6.89
2022-11-30T21:44:00.708Z,6.58
2022-11-30T21:46:27.235Z,6.94
2022-11-30T21:48:55.153Z,7.10
2022-11-30T21:51:24.116Z,7.17
2022-11-30T21:53:52.230Z,7.32
2022-11-30T21:56:20.553Z,7.40
2022-11-30T21:58:48.711Z,7.57
2022-11-30T22:01:17.760Z,7.13
2022-11-30T22:03:44.880Z,7.17
2022-11-30T22:06:15.349Z,7.05
2022-11-30T22:08:42.557Z,7.16
2022-11-30T22:11:11.295Z,7.28
2022-11-30T22:13:38.641Z,7.28
2022-11-30T22:16:07.460Z,7.10
2022-11-30T22:18:34.605Z,7.09
2022-11-30T22:21:06.090Z,7.33
2022-11-30T22:23:35.248Z,7.11
2022-11-30T22:26:12.848Z,7.20
2022-11-30T22:28:41.591Z,7.17
2022-11-30T22:31:10.013Z,7.21
2022-11-30T22:33:38.044Z,7.30
2022-11-30T22:36:06.462Z,7.18
2022-11-30T22:38:34.508Z,7.03
2022-11-30T22:41:06.153Z,7.10
2022-11-30T22:43:34.903Z,7.01
2022-11-30T22:46:08.838Z,7.18
2022-11-30T22:48:36.121Z,7.17
2022-11-30T22:51:04.058Z,7.50
2022-11-30T22:53:30.536Z,7.58
2022-11-30T22:56:02.860Z,7.50
2022-11-30T22:58:32.946Z,7.93
2022-11-30T23:01:06.682Z,7.40
2022-11-30T23:03:33.274Z,7.45
2022-11-30T23:06:00.137Z,7.44
2022-11-30T23:08:28.108Z,7.62
2022-11-30T23:10:56.772Z,7.88
2022-11-30T23:13:24.762Z,7.67
2022-11-30T23:15:51.417Z,7.41
2022-11-30T23:18:17.952Z,7.43
2022-11-30T23:20:44.446Z,7.44
2022-11-30T23:23:11.062Z,7.15
2022-11-30T23:25:37.582Z,7.34
2022-11-30T23:28:04.177Z,7.36
2022-11-30T23:30:32.665Z,7.33
2022-11-30T23:32:59.164Z,7.30
2022-11-30T23:35:25.688Z,7.39
2022-11-30T23:37:52.338Z,7.23
2022-11-30T23:40:19.480Z,7.30
2022-11-30T23:42:46.086Z,7.62
2022-11-30T23:45:12.840Z,7.34
2022-11-30T23:47:40.672Z,7.78
2022-11-30T23:50:09.186Z,7.25
2022-11-30T23:52:35.649Z,7.37
2022-11-30T23:55:02.151Z,7.40
2022-11-30T23:57:28.652Z,7.17
2022-11-30T23:59:55.277Z,7.35
